sensor_id;sensor_type;location;lat;lon;timestamp;P1;P2;P0
70566;PMS5003;58249;46.792;-71.248;2022-08-23T00:00:53;21.25;21.25;16.00
70566;PMS5003;58249;46.792;-71.248;2022-08-23T00:02:57;20.50;20.50;14.75
70566;PMS5003;58249;46.792;-71.248;2022-08-23T00:05:04;24.25;24.25;17.00
70566;PMS5003;58249;46.792;-71.248;2022-08-23T00:07:13;20.50;20.00;15.50
70566;PMS5003;58249;46.792;-71.248;2022-08-23T00:09:17;21.25;21.25;15.00
70566;PMS5003;58249;46.792;-71.248;2022-08-23T00:11:25;23.75;23.75;17.75
70566;PMS5003;58249;46.792;-71.248;2022-08-23T00:13:31;26.00;25.25;18.50
70566;PMS5003;58249;46.792;-71.248;2022-08-23T00:15:34;26.50;26.00;19.00
70566;PMS5003;58249;46.792;-71.248;2022-08-23T00:17:37;25.75;25.75;18.25
70566;PMS5003;58249;46.792;-71.248;2022-08-23T00:19:41;20.67;19.00;13.00
70566;PMS5003;58249;46.792;-71.248;2022-08-23T00:21:47;22.67;22.33;16.67
70566;PMS5003;58249;46.792;-71.248;2022-08-23T00:23:51;23.00;23.00;17.50
70566;PMS5003;58249;46.792;-71.248;2022-08-23T00:25:54;24.00;23.25;16.75
70566;PMS5003;58249;46.792;-71.248;2022-08-23T00:27:58;25.75;25.75;19.00
70566;PMS5003;58249;46.792;-71.248;2022-08-23T00:30:03;26.00;26.00;18.25
70566;PMS5003;58249;46.792;-71.248;2022-08-23T00:32:13;26.50;26.00;19.75
70566;PMS5003;58249;46.792;-71.248;2022-08-23T00:34:17;24.00;24.00;18.25
70566;PMS5003;58249;46.792;-71.248;2022-08-23T00:36:21;27.33;26.67;20.00
70566;PMS5003;58249;46.792;-71.248;2022-08-23T00:38:26;28.00;27.33;19.33
70566;PMS5003;58249;46.792;-71.248;2022-08-23T00:40:29;30.00;27.33;19.00
70566;PMS5003;58249;46.792;-71.248;2022-08-23T00:42:33;30.00;28.33;19.67
70566;PMS5003;58249;46.792;-71.248;2022-08-23T00:44:54;27.75;26.75;19.75
70566;PMS5003;58249;46.792;-71.248;2022-08-23T00:47:14;27.00;26.50;18.75
70566;PMS5003;58249;46.792;-71.248;2022-08-23T00:49:35;25.67;25.67;17.67
70566;PMS5003;58249;46.792;-71.248;2022-08-23T00:51:40;22.00;22.00;16.25
70566;PMS5003;58249;46.792;-71.248;2022-08-23T00:53:51;22.50;22.25;15.25
70566;PMS5003;58249;46.792;-71.248;2022-08-23T00:55:57;23.50;23.00;17.25
70566;PMS5003;58249;46.792;-71.248;2022-08-23T00:58:03;27.75;26.00;17.75
70566;PMS5003;58249;46.792;-71.248;2022-08-23T01:00:06;20.50;20.50;16.25
70566;PMS5003;58249;46.792;-71.248;2022-08-23T01:02:11;24.67;23.33;17.67
70566;PMS5003;58249;46.792;-71.248;2022-08-23T01:04:15;22.25;22.00;16.75
70566;PMS5003;58249;46.792;-71.248;2022-08-23T01:06:21;27.25;25.75;17.75
70566;PMS5003;58249;46.792;-71.248;2022-08-23T01:08:29;23.00;23.00;16.75
70566;PMS5003;58249;46.792;-71.248;2022-08-23T01:10:36;26.75;26.25;18.75
70566;PMS5003;58249;46.792;-71.248;2022-08-23T01:12:42;25.75;25.75;17.75
70566;PMS5003;58249;46.792;-71.248;2022-08-23T01:14:48;29.50;27.25;17.75
70566;PMS5003;58249;46.792;-71.248;2022-08-23T01:16:56;26.75;26.00;18.50
70566;PMS5003;58249;46.792;-71.248;2022-08-23T01:19:03;29.50;28.50;19.75
70566;PMS5003;58249;46.792;-71.248;2022-08-23T01:21:13;24.00;23.67;15.33
70566;PMS5003;58249;46.792;-71.248;2022-08-23T01:23:25;29.00;28.00;19.33
70566;PMS5003;58249;46.792;-71.248;2022-08-23T01:25:30;29.00;27.33;18.67
70566;PMS5003;58249;46.792;-71.248;2022-08-23T01:27:34;29.00;28.00;19.50
70566;PMS5003;58249;46.792;-71.248;2022-08-23T01:29:39;23.67;23.67;18.00
70566;PMS5003;58249;46.792;-71.248;2022-08-23T01:31:42;28.33;26.67;18.67
70566;PMS5003;58249;46.792;-71.248;2022-08-23T01:33:46;24.00;23.50;17.00
70566;PMS5003;58249;46.792;-71.248;2022-08-23T01:35:53;26.67;26.33;17.67
70566;PMS5003;58249;46.792;-71.248;2022-08-23T01:37:57;28.33;27.33;18.00
70566;PMS5003;58249;46.792;-71.248;2022-08-23T01:40:02;24.00;24.00;17.67
70566;PMS5003;58249;46.792;-71.248;2022-08-23T01:42:06;24.25;24.25;16.25
70566;PMS5003;58249;46.792;-71.248;2022-08-23T01:44:10;24.00;24.00;18.00
70566;PMS5003;58249;46.792;-71.248;2022-08-23T01:46:14;25.67;25.67;18.00
70566;PMS5003;58249;46.792;-71.248;2022-08-23T01:48:18;24.67;24.00;16.00
70566;PMS5003;58249;46.792;-71.248;2022-08-23T01:50:22;25.67;24.33;17.33
70566;PMS5003;58249;46.792;-71.248;2022-08-23T01:52:26;24.00;24.00;17.67
70566;PMS5003;58249;46.792;-71.248;2022-08-23T01:54:29;26.33;26.33;19.00
70566;PMS5003;58249;46.792;-71.248;2022-08-23T01:56:34;22.67;22.67;16.67
70566;PMS5003;58249;46.792;-71.248;2022-08-23T01:58:38;27.67;26.67;19.33
70566;PMS5003;58249;46.792;-71.248;2022-08-23T02:00:41;24.67;24.67;17.33
70566;PMS5003;58249;46.792;-71.248;2022-08-23T02:03:05;24.67;24.67;18.00
70566;PMS5003;58249;46.792;-71.248;2022-08-23T02:05:08;27.67;26.67;19.00
70566;PMS5003;58249;46.792;-71.248;2022-08-23T02:07:12;25.67;24.67;17.67
70566;PMS5003;58249;46.792;-71.248;2022-08-23T02:09:15;24.50;23.25;17.75
70566;PMS5003;58249;46.792;-71.248;2022-08-23T02:11:18;26.00;26.00;18.00
70566;PMS5003;58249;46.792;-71.248;2022-08-23T02:13:24;21.25;21.25;14.75
70566;PMS5003;58249;46.792;-71.248;2022-08-23T02:15:28;25.50;25.50;18.50
70566;PMS5003;58249;46.792;-71.248;2022-08-23T02:17:31;25.25;25.25;17.50
70566;PMS5003;58249;46.792;-71.248;2022-08-23T02:19:35;24.00;24.00;17.00
70566;PMS5003;58249;46.792;-71.248;2022-08-23T02:21:42;26.33;26.33;18.67
70566;PMS5003;58249;46.792;-71.248;2022-08-23T02:23:47;25.00;24.00;17.00
70566;PMS5003;58249;46.792;-71.248;2022-08-23T02:25:53;25.67;25.67;18.67
70566;PMS5003;58249;46.792;-71.248;2022-08-23T02:28:00;25.00;25.00;18.75
70566;PMS5003;58249;46.792;-71.248;2022-08-23T02:30:06;25.67;25.67;17.67
70566;PMS5003;58249;46.792;-71.248;2022-08-23T02:32:13;21.00;20.00;14.00
70566;PMS5003;58249;46.792;-71.248;2022-08-23T02:34:17;25.25;24.00;17.75
70566;PMS5003;58249;46.792;-71.248;2022-08-23T02:36:20;25.25;25.25;17.25
70566;PMS5003;58249;46.792;-71.248;2022-08-23T02:38:24;22.25;22.25;15.25
70566;PMS5003;58249;46.792;-71.248;2022-08-23T02:40:27;22.00;20.75;15.00
70566;PMS5003;58249;46.792;-71.248;2022-08-23T02:42:30;21.25;21.25;15.00
70566;PMS5003;58249;46.792;-71.248;2022-08-23T02:44:34;21.25;19.75;13.00
70566;PMS5003;58249;46.792;-71.248;2022-08-23T02:46:39;23.25;23.25;17.25
70566;PMS5003;58249;46.792;-71.248;2022-08-23T02:48:42;24.25;24.25;17.25
70566;PMS5003;58249;46.792;-71.248;2022-08-23T02:50:45;24.50;23.00;15.75
70566;PMS5003;58249;46.792;-71.248;2022-08-23T02:52:49;23.25;23.25;16.50
70566;PMS5003;58249;46.792;-71.248;2022-08-23T02:54:52;19.50;19.50;12.75
70566;PMS5003;58249;46.792;-71.248;2022-08-23T02:56:55;23.75;23.75;16.25
70566;PMS5003;58249;46.792;-71.248;2022-08-23T02:58:58;23.00;23.00;15.00
70566;PMS5003;58249;46.792;-71.248;2022-08-23T03:01:02;26.75;26.25;18.00
70566;PMS5003;58249;46.792;-71.248;2022-08-23T03:03:07;22.75;22.75;15.75
70566;PMS5003;58249;46.792;-71.248;2022-08-23T03:05:10;22.00;22.00;15.75
70566;PMS5003;58249;46.792;-71.248;2022-08-23T03:07:13;21.50;19.00;15.00
70566;PMS5003;58249;46.792;-71.248;2022-08-23T03:09:17;24.75;24.75;17.25
70566;PMS5003;58249;46.792;-71.248;2022-08-23T03:11:20;24.25;24.25;16.75
70566;PMS5003;58249;46.792;-71.248;2022-08-23T03:13:24;24.75;24.75;17.00
70566;PMS5003;58249;46.792;-71.248;2022-08-23T03:15:27;15.75;15.75;11.00
70566;PMS5003;58249;46.792;-71.248;2022-08-23T03:17:30;20.75;20.00;14.00
70566;PMS5003;58249;46.792;-71.248;2022-08-23T03:19:35;21.50;21.50;16.50
70566;PMS5003;58249;46.792;-71.248;2022-08-23T03:21:38;23.00;23.00;14.50
70566;PMS5003;58249;46.792;-71.248;2022-08-23T03:23:42;24.67;24.67;17.00
70566;PMS5003;58249;46.792;-71.248;2022-08-23T03:25:46;21.75;21.75;15.00
70566;PMS5003;58249;46.792;-71.248;2022-08-23T03:27:49;25.75;24.50;16.00
70566;PMS5003;58249;46.792;-71.248;2022-08-23T03:29:52;19.00;19.00;15.75
70566;PMS5003;58249;46.792;-71.248;2022-08-23T03:31:55;20.67;20.67;14.67
70566;PMS5003;58249;46.792;-71.248;2022-08-23T03:33:58;25.33;25.33;17.67
70566;PMS5003;58249;46.792;-71.248;2022-08-23T03:36:05;22.00;22.00;16.25
70566;PMS5003;58249;46.792;-71.248;2022-08-23T03:38:09;23.67;23.67;16.00
70566;PMS5003;58249;46.792;-71.248;2022-08-23T03:40:13;24.50;23.50;16.50
70566;PMS5003;58249;46.792;-71.248;2022-08-23T03:42:16;24.00;24.00;17.00
70566;PMS5003;58249;46.792;-71.248;2022-08-23T03:44:20;27.00;26.00;17.67
70566;PMS5003;58249;46.792;-71.248;2022-08-23T03:46:24;24.50;24.00;17.25
70566;PMS5003;58249;46.792;-71.248;2022-08-23T03:48:27;25.00;24.50;18.25
70566;PMS5003;58249;46.792;-71.248;2022-08-23T03:50:30;25.00;25.00;16.00
70566;PMS5003;58249;46.792;-71.248;2022-08-23T03:52:34;24.00;24.00;16.25
70566;PMS5003;58249;46.792;-71.248;2022-08-23T03:54:37;24.67;24.67;18.33
70566;PMS5003;58249;46.792;-71.248;2022-08-23T03:56:48;20.00;20.00;16.50
70566;PMS5003;58249;46.792;-71.248;2022-08-23T03:58:52;21.00;20.75;13.50
70566;PMS5003;58249;46.792;-71.248;2022-08-23T04:00:56;18.00;18.00;13.75
70566;PMS5003;58249;46.792;-71.248;2022-08-23T04:02:59;26.00;26.00;17.00
70566;PMS5003;58249;46.792;-71.248;2022-08-23T04:05:02;20.25;20.25;15.50
70566;PMS5003;58249;46.792;-71.248;2022-08-23T04:07:06;22.00;22.00;16.75
70566;PMS5003;58249;46.792;-71.248;2022-08-23T04:09:11;22.00;22.00;14.00
70566;PMS5003;58249;46.792;-71.248;2022-08-23T04:11:14;25.33;24.67;17.67
70566;PMS5003;58249;46.792;-71.248;2022-08-23T04:13:17;20.50;20.50;15.00
70566;PMS5003;58249;46.792;-71.248;2022-08-23T04:15:21;23.67;23.67;17.33
70566;PMS5003;58249;46.792;-71.248;2022-08-23T04:17:24;22.50;22.50;16.00
70566;PMS5003;58249;46.792;-71.248;2022-08-23T04:19:28;19.00;19.00;12.25
70566;PMS5003;58249;46.792;-71.248;2022-08-23T04:21:32;22.25;22.25;16.50
70566;PMS5003;58249;46.792;-71.248;2022-08-23T04:23:35;24.75;24.25;17.75
70566;PMS5003;58249;46.792;-71.248;2022-08-23T04:25:40;23.50;22.50;16.50
70566;PMS5003;58249;46.792;-71.248;2022-08-23T04:27:45;23.50;21.50;16.00
70566;PMS5003;58249;46.792;-71.248;2022-08-23T04:29:48;25.00;24.00;16.00
70566;PMS5003;58249;46.792;-71.248;2022-08-23T04:31:51;25.33;25.33;17.00
70566;PMS5003;58249;46.792;-71.248;2022-08-23T04:33:54;23.25;21.50;15.75
70566;PMS5003;58249;46.792;-71.248;2022-08-23T04:35:59;23.00;21.67;16.00
70566;PMS5003;58249;46.792;-71.248;2022-08-23T04:38:03;22.00;22.00;15.75
70566;PMS5003;58249;46.792;-71.248;2022-08-23T04:40:07;24.00;24.00;17.33
70566;PMS5003;58249;46.792;-71.248;2022-08-23T04:42:29;24.00;24.00;17.00
70566;PMS5003;58249;46.792;-71.248;2022-08-23T04:44:32;24.33;24.00;17.67
70566;PMS5003;58249;46.792;-71.248;2022-08-23T04:46:35;21.50;21.50;15.50
70566;PMS5003;58249;46.792;-71.248;2022-08-23T04:48:39;16.67;16.67;13.00
70566;PMS5003;58249;46.792;-71.248;2022-08-23T04:50:43;23.00;23.00;17.25
70566;PMS5003;58249;46.792;-71.248;2022-08-23T04:52:46;21.25;21.25;14.50
70566;PMS5003;58249;46.792;-71.248;2022-08-23T04:54:49;22.00;20.25;14.25
70566;PMS5003;58249;46.792;-71.248;2022-08-23T04:56:52;20.00;20.00;15.00
70566;PMS5003;58249;46.792;-71.248;2022-08-23T04:58:57;20.25;19.00;13.00
70566;PMS5003;58249;46.792;-71.248;2022-08-23T05:01:01;18.50;18.00;13.75
70566;PMS5003;58249;46.792;-71.248;2022-08-23T05:03:07;17.50;17.50;13.25
70566;PMS5003;58249;46.792;-71.248;2022-08-23T05:05:10;20.25;18.25;13.25
70566;PMS5003;58249;46.792;-71.248;2022-08-23T05:07:13;19.25;18.75;13.50
70566;PMS5003;58249;46.792;-71.248;2022-08-23T05:09:17;22.25;22.25;16.50
70566;PMS5003;58249;46.792;-71.248;2022-08-23T05:11:20;20.75;18.00;12.00
70566;PMS5003;58249;46.792;-71.248;2022-08-23T05:13:23;22.25;21.25;14.00
70566;PMS5003;58249;46.792;-71.248;2022-08-23T05:15:28;22.00;21.00;14.00
70566;PMS5003;58249;46.792;-71.248;2022-08-23T05:17:31;18.50;18.50;15.25
70566;PMS5003;58249;46.792;-71.248;2022-08-23T05:19:34;22.25;21.75;15.00
70566;PMS5003;58249;46.792;-71.248;2022-08-23T05:21:37;23.33;23.33;16.67
70566;PMS5003;58249;46.792;-71.248;2022-08-23T05:23:40;23.50;23.50;16.00
70566;PMS5003;58249;46.792;-71.248;2022-08-23T05:25:45;22.00;20.75;15.00
70566;PMS5003;58249;46.792;-71.248;2022-08-23T05:27:54;23.25;23.25;16.50
70566;PMS5003;58249;46.792;-71.248;2022-08-23T05:29:59;19.75;19.75;15.50
70566;PMS5003;58249;46.792;-71.248;2022-08-23T05:32:04;20.50;20.50;14.00
70566;PMS5003;58249;46.792;-71.248;2022-08-23T05:34:07;20.75;20.75;16.50
70566;PMS5003;58249;46.792;-71.248;2022-08-23T05:36:11;19.50;19.50;14.00
70566;PMS5003;58249;46.792;-71.248;2022-08-23T05:38:15;19.00;19.00;13.25
70566;PMS5003;58249;46.792;-71.248;2022-08-23T05:40:18;17.25;16.00;13.00
70566;PMS5003;58249;46.792;-71.248;2022-08-23T05:42:21;15.75;15.75;11.75
70566;PMS5003;58249;46.792;-71.248;2022-08-23T05:44:25;15.25;15.25;12.00
70566;PMS5003;58249;46.792;-71.248;2022-08-23T05:46:28;19.75;18.00;13.75
70566;PMS5003;58249;46.792;-71.248;2022-08-23T05:48:33;17.50;15.75;13.00
70566;PMS5003;58249;46.792;-71.248;2022-08-23T05:50:36;15.75;15.50;11.25
70566;PMS5003;58249;46.792;-71.248;2022-08-23T05:52:39;19.75;19.50;13.25
70566;PMS5003;58249;46.792;-71.248;2022-08-23T05:54:42;21.75;21.25;15.50
70566;PMS5003;58249;46.792;-71.248;2022-08-23T05:56:46;20.75;20.75;14.00
70566;PMS5003;58249;46.792;-71.248;2022-08-23T05:58:50;18.25;17.50;14.25
70566;PMS5003;58249;46.792;-71.248;2022-08-23T06:00:54;21.25;20.25;14.75
70566;PMS5003;58249;46.792;-71.248;2022-08-23T06:02:57;21.75;21.50;15.00
70566;PMS5003;58249;46.792;-71.248;2022-08-23T06:05:03;20.75;20.25;14.75
70566;PMS5003;58249;46.792;-71.248;2022-08-23T06:07:06;20.00;20.00;12.25
70566;PMS5003;58249;46.792;-71.248;2022-08-23T06:09:12;19.75;18.75;13.00
70566;PMS5003;58249;46.792;-71.248;2022-08-23T06:11:17;19.50;19.25;13.50
70566;PMS5003;58249;46.792;-71.248;2022-08-23T06:13:22;22.25;21.75;15.25
70566;PMS5003;58249;46.792;-71.248;2022-08-23T06:15:25;16.25;16.25;12.25
70566;PMS5003;58249;46.792;-71.248;2022-08-23T06:17:28;16.00;16.00;12.50
70566;PMS5003;58249;46.792;-71.248;2022-08-23T06:19:31;17.75;17.75;11.25
70566;PMS5003;58249;46.792;-71.248;2022-08-23T06:21:36;19.25;19.25;14.00
70566;PMS5003;58249;46.792;-71.248;2022-08-23T06:23:40;16.50;16.50;12.00
70566;PMS5003;58249;46.792;-71.248;2022-08-23T06:25:45;19.25;18.00;13.75
70566;PMS5003;58249;46.792;-71.248;2022-08-23T06:27:48;17.25;16.50;11.25
70566;PMS5003;58249;46.792;-71.248;2022-08-23T06:29:52;19.25;19.25;13.50
70566;PMS5003;58249;46.792;-71.248;2022-08-23T06:31:55;18.00;18.00;13.00
70566;PMS5003;58249;46.792;-71.248;2022-08-23T06:33:58;19.00;19.00;12.75
70566;PMS5003;58249;46.792;-71.248;2022-08-23T06:36:01;22.75;20.75;14.00
70566;PMS5003;58249;46.792;-71.248;2022-08-23T06:38:08;17.25;17.25;12.25
70566;PMS5003;58249;46.792;-71.248;2022-08-23T06:40:11;17.75;17.75;12.75
70566;PMS5003;58249;46.792;-71.248;2022-08-23T06:42:14;16.25;16.25;10.75
70566;PMS5003;58249;46.792;-71.248;2022-08-23T06:44:18;17.75;17.75;13.00
70566;PMS5003;58249;46.792;-71.248;2022-08-23T06:46:22;18.25;18.00;12.00
70566;PMS5003;58249;46.792;-71.248;2022-08-23T06:48:27;19.75;19.75;13.00
70566;PMS5003;58249;46.792;-71.248;2022-08-23T06:50:30;20.50;19.25;13.50
70566;PMS5003;58249;46.792;-71.248;2022-08-23T06:52:33;17.00;16.50;13.00
70566;PMS5003;58249;46.792;-71.248;2022-08-23T06:54:38;21.50;19.25;11.50
70566;PMS5003;58249;46.792;-71.248;2022-08-23T06:56:41;18.50;17.50;12.00
70566;PMS5003;58249;46.792;-71.248;2022-08-23T06:58:45;20.50;20.50;13.00
70566;PMS5003;58249;46.792;-71.248;2022-08-23T07:00:48;15.25;15.25;10.50
70566;PMS5003;58249;46.792;-71.248;2022-08-23T07:02:51;17.00;17.00;12.00
70566;PMS5003;58249;46.792;-71.248;2022-08-23T07:04:54;16.50;16.50;12.00
70566;PMS5003;58249;46.792;-71.248;2022-08-23T07:06:57;17.00;17.00;12.75
70566;PMS5003;58249;46.792;-71.248;2022-08-23T07:09:01;15.00;15.00;11.00
70566;PMS5003;58249;46.792;-71.248;2022-08-23T07:11:07;17.00;16.00;11.50
70566;PMS5003;58249;46.792;-71.248;2022-08-23T07:13:10;19.50;19.50;12.50
70566;PMS5003;58249;46.792;-71.248;2022-08-23T07:15:14;20.00;20.00;13.25
70566;PMS5003;58249;46.792;-71.248;2022-08-23T07:17:17;16.00;15.00;11.25
70566;PMS5003;58249;46.792;-71.248;2022-08-23T07:19:21;18.25;18.25;13.00
70566;PMS5003;58249;46.792;-71.248;2022-08-23T07:21:26;17.00;17.00;12.00
70566;PMS5003;58249;46.792;-71.248;2022-08-23T07:23:30;15.75;15.75;11.25
70566;PMS5003;58249;46.792;-71.248;2022-08-23T07:25:34;16.50;16.50;11.50
70566;PMS5003;58249;46.792;-71.248;2022-08-23T07:27:38;14.75;14.00;10.50
70566;PMS5003;58249;46.792;-71.248;2022-08-23T07:29:42;18.00;18.00;13.00
70566;PMS5003;58249;46.792;-71.248;2022-08-23T07:31:45;17.00;16.75;12.00
70566;PMS5003;58249;46.792;-71.248;2022-08-23T07:33:50;17.25;17.25;13.00
70566;PMS5003;58249;46.792;-71.248;2022-08-23T07:35:53;15.75;15.00;10.00
70566;PMS5003;58249;46.792;-71.248;2022-08-23T07:37:56;14.75;14.75;10.00
70566;PMS5003;58249;46.792;-71.248;2022-08-23T07:40:00;19.00;19.00;12.00
70566;PMS5003;58249;46.792;-71.248;2022-08-23T07:42:03;16.00;16.00;13.00
70566;PMS5003;58249;46.792;-71.248;2022-08-23T07:44:08;16.75;16.75;11.75
70566;PMS5003;58249;46.792;-71.248;2022-08-23T07:46:12;17.25;17.25;10.75
70566;PMS5003;58249;46.792;-71.248;2022-08-23T07:48:15;13.50;13.50;11.00
70566;PMS5003;58249;46.792;-71.248;2022-08-23T07:50:18;18.00;17.00;11.75
70566;PMS5003;58249;46.792;-71.248;2022-08-23T07:52:22;14.50;13.50;10.00
70566;PMS5003;58249;46.792;-71.248;2022-08-23T07:54:25;13.75;13.75;9.75
70566;PMS5003;58249;46.792;-71.248;2022-08-23T07:56:29;12.25;12.25;9.00
70566;PMS5003;58249;46.792;-71.248;2022-08-23T07:58:32;15.25;15.25;10.75
70566;PMS5003;58249;46.792;-71.248;2022-08-23T08:00:37;12.00;11.75;8.00
70566;PMS5003;58249;46.792;-71.248;2022-08-23T08:02:40;17.00;17.00;11.00
70566;PMS5003;58249;46.792;-71.248;2022-08-23T08:04:43;16.25;16.25;12.00
70566;PMS5003;58249;46.792;-71.248;2022-08-23T08:06:47;15.00;15.00;9.50
70566;PMS5003;58249;46.792;-71.248;2022-08-23T08:08:51;15.25;15.25;11.00
70566;PMS5003;58249;46.792;-71.248;2022-08-23T08:10:56;16.50;16.50;10.25
70566;PMS5003;58249;46.792;-71.248;2022-08-23T08:12:59;9.50;9.50;5.00
70566;PMS5003;58249;46.792;-71.248;2022-08-23T08:15:02;16.25;16.25;11.00
70566;PMS5003;58249;46.792;-71.248;2022-08-23T08:17:08;16.00;16.00;11.75
70566;PMS5003;58249;46.792;-71.248;2022-08-23T08:19:11;12.00;12.00;9.25
70566;PMS5003;58249;46.792;-71.248;2022-08-23T08:21:17;16.25;16.25;10.25
70566;PMS5003;58249;46.792;-71.248;2022-08-23T08:23:21;13.50;13.50;9.00
70566;PMS5003;58249;46.792;-71.248;2022-08-23T08:25:24;17.50;17.50;12.50
70566;PMS5003;58249;46.792;-71.248;2022-08-23T08:27:28;17.25;17.25;11.75
70566;PMS5003;58249;46.792;-71.248;2022-08-23T08:29:32;14.50;14.50;12.50
70566;PMS5003;58249;46.792;-71.248;2022-08-23T08:31:35;15.50;15.50;10.75
70566;PMS5003;58249;46.792;-71.248;2022-08-23T08:33:40;16.00;16.00;10.75
70566;PMS5003;58249;46.792;-71.248;2022-08-23T08:35:46;17.00;17.00;11.75
70566;PMS5003;58249;46.792;-71.248;2022-08-23T08:37:49;17.50;17.50;11.75
70566;PMS5003;58249;46.792;-71.248;2022-08-23T08:39:52;20.25;19.75;13.00
70566;PMS5003;58249;46.792;-71.248;2022-08-23T08:41:58;17.00;16.25;12.00
70566;PMS5003;58249;46.792;-71.248;2022-08-23T08:44:09;19.50;17.75;13.25
70566;PMS5003;58249;46.792;-71.248;2022-08-23T08:46:17;21.25;20.25;12.50
70566;PMS5003;58249;46.792;-71.248;2022-08-23T08:48:24;15.25;14.50;12.00
70566;PMS5003;58249;46.792;-71.248;2022-08-23T08:50:31;16.50;16.50;12.50
70566;PMS5003;58249;46.792;-71.248;2022-08-23T08:52:37;19.00;19.00;13.00
70566;PMS5003;58249;46.792;-71.248;2022-08-23T08:54:44;18.50;18.50;13.00
70566;PMS5003;58249;46.792;-71.248;2022-08-23T08:56:50;21.00;19.25;13.00
70566;PMS5003;58249;46.792;-71.248;2022-08-23T08:58:56;18.25;18.25;12.50
70566;PMS5003;58249;46.792;-71.248;2022-08-23T09:01:01;17.50;17.00;11.75
70566;PMS5003;58249;46.792;-71.248;2022-08-23T09:03:07;16.75;15.50;11.00
70566;PMS5003;58249;46.792;-71.248;2022-08-23T09:05:14;16.00;16.00;11.75
70566;PMS5003;58249;46.792;-71.248;2022-08-23T09:07:22;16.00;16.00;9.50
70566;PMS5003;58249;46.792;-71.248;2022-08-23T09:09:40;16.75;16.75;10.75
70566;PMS5003;58249;46.792;-71.248;2022-08-23T09:11:55;13.75;13.75;11.00
70566;PMS5003;58249;46.792;-71.248;2022-08-23T09:14:13;19.75;18.50;12.00
70566;PMS5003;58249;46.792;-71.248;2022-08-23T09:16:37;17.50;16.25;12.00
70566;PMS5003;58249;46.792;-71.248;2022-08-23T09:18:46;15.50;15.50;11.00
70566;PMS5003;58249;46.792;-71.248;2022-08-23T09:20:51;15.75;15.75;11.25
70566;PMS5003;58249;46.792;-71.248;2022-08-23T09:22:58;16.25;16.25;11.00
70566;PMS5003;58249;46.792;-71.248;2022-08-23T09:25:10;15.25;15.25;11.00
70566;PMS5003;58249;46.792;-71.248;2022-08-23T09:27:13;16.50;16.50;11.25
70566;PMS5003;58249;46.792;-71.248;2022-08-23T09:29:19;14.75;14.75;10.50
70566;PMS5003;58249;46.792;-71.248;2022-08-23T09:33:50;15.75;15.75;12.25
70566;PMS5003;58249;46.792;-71.248;2022-08-23T09:36:02;17.25;16.75;11.75
70566;PMS5003;58249;46.792;-71.248;2022-08-23T09:38:17;19.00;18.00;12.00
70566;PMS5003;58249;46.792;-71.248;2022-08-23T09:40:25;14.50;14.50;10.75
70566;PMS5003;58249;46.792;-71.248;2022-08-23T09:42:34;15.00;15.00;9.75
70566;PMS5003;58249;46.792;-71.248;2022-08-23T09:44:39;15.50;15.50;11.25
70566;PMS5003;58249;46.792;-71.248;2022-08-23T09:46:44;16.00;16.00;11.50
70566;PMS5003;58249;46.792;-71.248;2022-08-23T09:48:48;15.50;14.50;10.00
70566;PMS5003;58249;46.792;-71.248;2022-08-23T09:50:54;15.50;14.25;9.75
70566;PMS5003;58249;46.792;-71.248;2022-08-23T09:52:58;13.75;13.75;10.00
70566;PMS5003;58249;46.792;-71.248;2022-08-23T09:55:05;16.00;16.00;11.50
70566;PMS5003;58249;46.792;-71.248;2022-08-23T09:57:11;16.75;16.75;11.25
70566;PMS5003;58249;46.792;-71.248;2022-08-23T09:59:26;15.50;14.75;9.25
70566;PMS5003;58249;46.792;-71.248;2022-08-23T10:01:35;14.00;14.00;10.75
70566;PMS5003;58249;46.792;-71.248;2022-08-23T10:03:39;14.00;14.00;9.50
70566;PMS5003;58249;46.792;-71.248;2022-08-23T10:05:45;16.00;16.00;10.75
70566;PMS5003;58249;46.792;-71.248;2022-08-23T10:07:52;16.25;15.25;11.50
70566;PMS5003;58249;46.792;-71.248;2022-08-23T10:10:14;17.75;15.00;10.50
70566;PMS5003;58249;46.792;-71.248;2022-08-23T10:12:19;14.50;14.50;11.00
70566;PMS5003;58249;46.792;-71.248;2022-08-23T10:14:24;13.25;12.50;7.75
70566;PMS5003;58249;46.792;-71.248;2022-08-23T10:16:31;17.50;17.25;11.75
70566;PMS5003;58249;46.792;-71.248;2022-08-23T10:18:42;13.00;13.00;10.25
70566;PMS5003;58249;46.792;-71.248;2022-08-23T10:20:53;17.25;16.50;11.75
70566;PMS5003;58249;46.792;-71.248;2022-08-23T10:23:04;14.00;14.00;10.00
70566;PMS5003;58249;46.792;-71.248;2022-08-23T10:25:16;11.75;11.75;9.50
70566;PMS5003;58249;46.792;-71.248;2022-08-23T10:27:43;14.75;13.75;9.25
70566;PMS5003;58249;46.792;-71.248;2022-08-23T10:30:07;15.50;15.25;11.75
70566;PMS5003;58249;46.792;-71.248;2022-08-23T10:32:16;16.25;16.00;12.00
70566;PMS5003;58249;46.792;-71.248;2022-08-23T10:36:53;17.75;17.75;12.50
70566;PMS5003;58249;46.792;-71.248;2022-08-23T10:39:02;13.75;13.75;10.00
70566;PMS5003;58249;46.792;-71.248;2022-08-23T10:41:19;15.75;15.75;12.00
70566;PMS5003;58249;46.792;-71.248;2022-08-23T10:43:36;14.00;14.00;10.00
70566;PMS5003;58249;46.792;-71.248;2022-08-23T10:45:44;14.75;14.75;10.75
70566;PMS5003;58249;46.792;-71.248;2022-08-23T10:48:02;14.50;14.50;10.25
70566;PMS5003;58249;46.792;-71.248;2022-08-23T10:50:15;15.25;15.25;10.75
70566;PMS5003;58249;46.792;-71.248;2022-08-23T10:52:22;12.75;12.75;9.25
70566;PMS5003;58249;46.792;-71.248;2022-08-23T10:54:29;14.00;13.75;10.00
70566;PMS5003;58249;46.792;-71.248;2022-08-23T10:56:47;15.75;15.75;11.25
70566;PMS5003;58249;46.792;-71.248;2022-08-23T10:58:51;14.00;14.00;10.00
70566;PMS5003;58249;46.792;-71.248;2022-08-23T11:00:55;14.50;13.75;11.00
70566;PMS5003;58249;46.792;-71.248;2022-08-23T11:03:03;15.50;13.50;10.50
70566;PMS5003;58249;46.792;-71.248;2022-08-23T11:05:17;14.00;14.00;10.00
70566;PMS5003;58249;46.792;-71.248;2022-08-23T11:07:24;15.00;15.00;11.00
70566;PMS5003;58249;46.792;-71.248;2022-08-23T11:09:43;13.50;13.50;9.75
70566;PMS5003;58249;46.792;-71.248;2022-08-23T11:14:26;15.75;15.75;11.00
70566;PMS5003;58249;46.792;-71.248;2022-08-23T11:16:39;16.00;15.50;10.25
70566;PMS5003;58249;46.792;-71.248;2022-08-23T11:18:48;13.75;13.75;9.00
70566;PMS5003;58249;46.792;-71.248;2022-08-23T11:21:00;14.75;14.75;10.00
70566;PMS5003;58249;46.792;-71.248;2022-08-23T11:23:11;14.25;13.25;9.00
70566;PMS5003;58249;46.792;-71.248;2022-08-23T11:27:44;14.00;13.00;10.25
70566;PMS5003;58249;46.792;-71.248;2022-08-23T11:29:47;13.00;13.00;9.75
70566;PMS5003;58249;46.792;-71.248;2022-08-23T11:31:55;11.00;10.75;8.00
70566;PMS5003;58249;46.792;-71.248;2022-08-23T11:34:02;11.50;11.50;7.75
70566;PMS5003;58249;46.792;-71.248;2022-08-23T11:36:14;15.00;14.25;10.50